Time;durP1;ratioP1;P1;durP2;ratioP2;P2;SDS_P1;SDS_P2;PMS_P1;PMS_P2;Temp;Humidity;BMP_temperature;BMP_pressure;BME280_temperature;BME280_humidity;BME280_pressure;Samples;Min_cycle;Max_cycle;Signal;HPM_P1;HPM_P2
2024/04/25 00:00:26;;;;;;;4.03;3.10;;;;;;;4.13;100.00;100341.59;5170060;27;20806;-80
2024/04/25 00:02:52;;;;;;;3.80;3.03;;;;;;;4.09;100.00;100340.47;5169860;27;20012;-77
2024/04/25 00:05:19;;;;;;;4.68;3.10;;;;;;;4.04;100.00;100346.47;5172120;27;20020;-78
2024/04/25 00:07:45;;;;;;;4.85;3.20;;;;;;;4.00;100.00;100341.91;5196718;27;20004;-80
2024/04/25 00:10:11;;;;;;;4.03;2.85;;;;;;;3.97;100.00;100343.16;5143342;27;20004;-80
2024/04/25 00:12:37;;;;;;;5.13;3.55;;;;;;;3.96;100.00;100330.94;5144379;27;20019;-74
2024/04/25 00:15:03;;;;;;;6.45;3.30;;;;;;;3.94;100.00;100338.34;5129164;27;20016;-77
2024/04/25 00:17:29;;;;;;;3.47;2.78;;;;;;;3.90;100.00;100337.19;5214539;27;20016;-76
2024/04/25 00:19:55;;;;;;;4.60;2.63;;;;;;;3.89;100.00;100340.88;5171744;27;20020;-76
2024/04/25 00:22:20;;;;;;;4.28;3.05;;;;;;;3.88;100.00;100333.97;5136783;27;20009;-76
2024/04/25 00:24:46;;;;;;;4.13;3.30;;;;;;;3.85;100.00;100334.44;5167940;27;20035;-78
2024/04/25 00:27:13;;;;;;;4.50;2.45;;;;;;;3.84;100.00;100335.47;5171742;27;20752;-77
2024/04/25 00:29:40;;;;;;;5.82;3.45;;;;;;;3.84;100.00;100332.81;5173086;27;20023;-77
2024/04/25 00:32:06;;;;;;;4.75;2.83;;;;;;;3.86;100.00;100330.72;5104425;27;20016;-76
2024/04/25 00:34:32;;;;;;;5.38;3.22;;;;;;;3.84;100.00;100327.53;5168255;27;20036;-77
2024/04/25 00:36:57;;;;;;;4.22;2.17;;;;;;;3.82;100.00;100325.13;5183734;27;20612;-76
2024/04/25 00:39:23;;;;;;;4.47;3.05;;;;;;;3.82;100.00;100329.63;5167441;27;20080;-78
2024/04/25 00:41:50;;;;;;;3.60;3.00;;;;;;;3.78;100.00;100318.66;5194762;27;20020;-77
2024/04/25 00:44:15;;;;;;;5.35;3.35;;;;;;;3.76;100.00;100325.25;5167707;27;20012;-78
2024/04/25 00:46:42;;;;;;;4.60;2.70;;;;;;;3.74;100.00;100328.16;5169018;27;20024;-77
2024/04/25 00:49:11;;;;;;;6.22;2.72;;;;;;;3.76;100.00;100322.59;5165083;27;20039;-78
2024/04/25 00:51:37;;;;;;;5.45;2.70;;;;;;;3.74;100.00;100325.50;5194822;27;20020;-77
2024/04/25 00:54:03;;;;;;;4.05;2.95;;;;;;;3.74;100.00;100316.75;5171217;27;20008;-77
2024/04/25 00:56:31;;;;;;;4.38;3.20;;;;;;;3.75;100.00;100323.66;5195181;27;20016;-77
2024/04/25 00:58:58;;;;;;;5.63;4.07;;;;;;;3.74;100.00;100322.03;5162588;27;20012;-77
2024/04/25 01:01:24;;;;;;;4.53;3.03;;;;;;;3.74;100.00;100319.41;5181819;27;20019;-76
2024/04/25 01:03:53;;;;;;;4.22;3.20;;;;;;;3.77;100.00;100317.06;5170797;27;20012;-77
2024/04/25 01:06:21;;;;;;;4.97;3.38;;;;;;;3.77;100.00;100310.97;5170024;27;20066;-76
2024/04/25 01:08:47;;;;;;;4.80;3.50;;;;;;;3.80;100.00;100307.88;5224409;27;20453;-79
2024/04/25 01:11:13;;;;;;;4.90;3.65;;;;;;;3.81;100.00;100306.81;5138474;27;20472;-79
2024/04/25 01:13:39;;;;;;;5.90;3.70;;;;;;;3.82;100.00;100300.47;5163102;27;20227;-82
2024/04/25 01:16:08;;;;;;;7.63;3.85;;;;;;;3.84;100.00;100299.19;5165425;27;20490;-81
2024/04/25 01:18:34;;;;;;;4.00;3.08;;;;;;;3.84;100.00;100299.19;5174622;27;20466;-82
2024/04/25 01:21:00;;;;;;;4.35;3.20;;;;;;;3.82;100.00;100300.47;5167282;27;20008;-80
2024/04/25 01:23:30;;;;;;;5.95;3.50;;;;;;;3.82;100.00;100303.94;5175479;27;20017;-80
2024/04/25 01:25:58;;;;;;;4.47;2.88;;;;;;;3.84;100.00;100301.03;5169144;27;20012;-80
2024/04/25 01:28:24;;;;;;;5.50;3.17;;;;;;;3.81;100.00;100296.22;5172728;27;20008;-80
2024/04/25 01:30:49;;;;;;;5.63;3.58;;;;;;;3.79;100.00;100299.13;5140283;27;20463;-82
2024/04/25 01:33:16;;;;;;;5.80;3.40;;;;;;;3.79;100.00;100292.97;5174922;27;20044;-79
2024/04/25 01:35:44;;;;;;;5.65;3.35;;;;;;;3.78;100.00;100302.78;5170106;27;20005;-80
2024/04/25 01:38:10;;;;;;;4.72;3.08;;;;;;;3.76;100.00;100288.97;5175731;27;20031;-79
2024/04/25 01:40:36;;;;;;;4.65;2.97;;;;;;;3.76;100.00;100288.16;5195674;27;20063;-81
2024/04/25 01:43:01;;;;;;;4.50;3.15;;;;;;;3.77;100.00;100300.38;5195532;27;20020;-81
2024/04/25 01:45:27;;;;;;;5.53;3.60;;;;;;;3.76;100.00;100288.97;5170372;27;20016;-81
2024/04/25 01:47:53;;;;;;;5.40;3.53;;;;;;;3.76;100.00;100296.13;5177754;27;20024;-80
2024/04/25 01:50:18;;;;;;;7.18;3.30;;;;;;;3.75;100.00;100287.38;5159711;27;20439;-80
2024/04/25 01:52:44;;;;;;;5.40;3.92;;;;;;;3.75;100.00;100287.38;5147376;27;20013;-81
2024/04/25 01:55:09;;;;;;;5.15;3.40;;;;;;;3.76;100.00;100286.31;5195173;27;20086;-81
2024/04/25 01:57:35;;;;;;;5.07;3.55;;;;;;;3.74;100.00;100277.81;5171890;27;20008;-80
2024/04/25 02:00:01;;;;;;;5.15;3.53;;;;;;;3.72;100.00;100287.81;5191660;27;20027;-81
2024/04/25 02:02:35;;;;;;;5.85;3.78;;;;;;;3.72;100.00;100282.53;5171872;27;20031;-80
2024/04/25 02:05:01;;;;;;;4.90;3.33;;;;;;;3.71;100.00;100280.91;5175274;27;20557;-80
2024/04/25 02:07:27;;;;;;;6.28;4.03;;;;;;;3.73;100.00;100288.66;5200316;27;20391;-79
2024/04/25 02:09:52;;;;;;;5.70;3.80;;;;;;;3.73;100.00;100280.72;5171434;27;20126;-83
2024/04/25 02:12:18;;;;;;;5.15;3.78;;;;;;;3.70;100.00;100281.97;5225029;27;20016;-80
2024/04/25 02:14:44;;;;;;;7.38;4.15;;;;;;;3.70;100.00;100283.81;5177714;27;20013;-83
2024/04/25 02:17:10;;;;;;;4.63;3.65;;;;;;;3.70;100.00;100281.16;5176102;27;20043;-80
2024/04/25 02:19:36;;;;;;;5.85;3.85;;;;;;;3.72;100.00;100287.03;5174150;27;20023;-81
2024/04/25 02:27:30;;;;;;;;;;;;;;;3.71;100.00;100280.13;5157122;27;20035;-81
2024/04/25 02:29:55;;;;;;;5.43;4.22;;;;;;;3.69;100.00;100282.22;5174650;27;19940;-81
2024/04/25 02:32:22;;;;;;;5.50;3.60;;;;;;;3.69;100.00;100283.00;5195055;27;20024;-81
2024/04/25 02:34:47;;;;;;;5.20;3.65;;;;;;;3.67;100.00;100273.72;5155926;27;20044;-81
2024/04/25 02:37:13;;;;;;;5.35;3.97;;;;;;;3.69;100.00;100276.91;5237229;27;20018;-80
2024/04/25 02:39:39;;;;;;;5.38;3.40;;;;;;;3.69;100.00;100266.31;5183019;27;20040;-81
2024/04/25 02:42:05;;;;;;;7.07;4.32;;;;;;;3.67;100.00;100276.34;5170219;27;20017;-80
2024/04/25 02:44:31;;;;;;;5.55;4.32;;;;;;;3.67;100.00;100263.09;5170300;27;20019;-80
2024/04/25 02:46:56;;;;;;;5.80;3.92;;;;;;;3.67;100.00;100268.41;5154381;27;20019;-80
2024/04/25 02:49:23;;;;;;;6.28;4.60;;;;;;;3.67;100.00;100269.22;5170629;27;20026;-81
2024/04/25 02:51:48;;;;;;;7.57;5.00;;;;;;;3.68;100.00;100270.81;5193707;27;20012;-80
2024/04/25 02:54:14;;;;;;;5.05;3.80;;;;;;;3.69;100.00;100271.63;5168264;27;20007;-82
2024/04/25 02:56:39;;;;;;;5.55;4.68;;;;;;;3.70;100.00;100268.72;5222386;27;20076;-82
2024/04/25 02:59:05;;;;;;;8.45;5.47;;;;;;;3.71;100.00;100264.22;5193590;27;20024;-82
2024/04/25 03:01:31;;;;;;;8.23;5.40;;;;;;;3.72;100.00;100268.47;5172611;27;20524;-83
2024/04/25 03:03:57;;;;;;;8.77;5.35;;;;;;;3.74;100.00;100269.06;5172955;27;20040;-81
2024/04/25 03:06:25;;;;;;;6.30;4.70;;;;;;;3.75;100.00;100271.47;5145543;27;20012;-81
2024/04/25 03:08:52;;;;;;;7.10;5.50;;;;;;;3.76;100.00;100261.69;5171734;27;20009;-81
2024/04/25 03:11:17;;;;;;;7.45;5.32;;;;;;;3.77;100.00;100263.28;5137863;27;20027;-81
2024/04/25 03:13:44;;;;;;;7.55;5.10;;;;;;;3.79;100.00;100266.50;5233436;27;20423;-81
2024/04/25 03:16:09;;;;;;;;;;;;;;;3.79;100.00;100271.78;5177315;27;20103;-81
2024/04/25 03:18:35;;;;;;;8.02;5.38;;;;;;;3.79;100.00;100262.03;5224442;27;19940;-81
2024/04/25 03:21:07;;;;;;;10.57;6.82;;;;;;;3.80;100.00;100274.22;5198728;27;20028;-81
2024/04/25 03:23:34;;;;;;;;;;;;;;;3.82;100.00;100268.69;5171218;27;20008;-80
2024/04/25 03:26:01;;;;;;;7.90;5.55;;;;;;;3.84;100.00;100271.91;5181542;27;20274;-82
2024/04/25 03:28:27;;;;;;;7.50;5.30;;;;;;;3.86;100.00;100272.47;5205027;27;20542;-80
2024/04/25 03:30:52;;;;;;;7.40;5.03;;;;;;;3.87;100.00;100268.00;5170642;27;20021;-82
2024/04/25 03:33:18;;;;;;;8.05;5.90;;;;;;;3.87;100.00;100274.09;5195530;27;20220;-81
2024/04/25 03:35:44;;;;;;;6.28;4.28;;;;;;;3.88;100.00;100270.41;5146301;27;20019;-82
2024/04/25 03:38:10;;;;;;;8.48;5.38;;;;;;;3.91;100.00;100274.41;5170800;27;20013;-83
2024/04/25 03:40:38;;;;;;;7.15;5.15;;;;;;;3.91;100.00;100267.25;5233590;27;20048;-82
2024/04/25 03:43:05;;;;;;;7.88;5.68;;;;;;;3.95;100.00;100276.34;5219386;27;20027;-82
2024/04/25 03:45:31;;;;;;;8.00;4.70;;;;;;;3.94;100.00;100269.44;5194057;27;20099;-82
2024/04/25 03:47:57;;;;;;;6.28;4.50;;;;;;;3.95;100.00;100279.00;5179067;27;20024;-82
2024/04/25 03:50:24;;;;;;;6.30;4.63;;;;;;;3.95;100.00;100276.34;5173805;27;20814;-80
2024/04/25 03:52:50;;;;;;;7.57;5.45;;;;;;;3.96;100.00;100277.16;5187844;27;20013;-81
2024/04/25 03:55:16;;;;;;;8.10;4.72;;;;;;;3.99;100.00;100276.66;5147838;27;20020;-81
2024/04/25 03:57:42;;;;;;;6.70;4.95;;;;;;;3.99;100.00;100272.16;5165921;27;20430;-81
2024/04/25 04:00:08;;;;;;;6.32;4.47;;;;;;;4.01;100.00;100280.72;5202445;27;20020;-82
2024/04/25 04:02:34;;;;;;;;;;;;;;;4.03;100.00;100278.63;5197378;27;20023;-81
2024/04/25 04:05:01;;;;;;;8.52;4.38;;;;;;;4.04;100.00;100274.13;5232117;27;19928;-80
2024/04/25 04:07:27;;;;;;;7.43;5.10;;;;;;;4.03;100.00;100270.66;5176914;27;20005;-81
2024/04/25 04:09:53;;;;;;;;;;;;;;;4.02;100.00;100269.06;5206012;27;20753;-81
2024/04/25 04:12:20;;;;;;;7.43;4.60;;;;;;;4.01;100.00;100275.41;5170644;27;20004;-80
2024/04/25 04:14:45;;;;;;;7.82;5.50;;;;;;;4.01;100.00;100269.31;5153877;27;20058;-81
2024/04/25 04:17:11;;;;;;;6.72;4.50;;;;;;;4.00;100.00;100268.50;5150941;27;20008;-80
2024/04/25 04:19:37;;;;;;;7.32;4.53;;;;;;;3.99;100.00;100269.53;5178695;27;20026;-80
2024/04/25 04:22:03;;;;;;;9.25;5.13;;;;;;;4.00;100.00;100284.41;5170314;27;20479;-80
2024/04/25 04:24:28;;;;;;;7.20;5.07;;;;;;;4.00;100.00;100273.00;5177226;27;20500;-81
2024/04/25 04:26:54;;;;;;;6.88;4.90;;;;;;;4.00;100.00;100279.09;5151080;27;20008;-80
2024/04/25 04:29:22;;;;;;;8.77;4.60;;;;;;;4.00;100.00;100287.06;5132833;27;20841;-81
2024/04/25 04:31:48;;;;;;;10.15;5.47;;;;;;;4.01;100.00;100280.72;5175297;27;20417;-81
2024/04/25 04:34:16;;;;;;;8.18;5.43;;;;;;;4.02;100.00;100282.31;5169971;27;20475;-80
2024/04/25 04:36:41;;;;;;;8.88;5.20;;;;;;;4.05;100.00;100283.69;5168674;27;20013;-80
2024/04/25 04:39:10;;;;;;;7.10;5.13;;;;;;;4.07;100.00;100278.97;5218977;27;20026;-81
2024/04/25 04:41:35;;;;;;;7.15;4.78;;;;;;;4.08;100.00;100281.38;5176898;27;20012;-82
2024/04/25 04:44:01;;;;;;;7.68;5.50;;;;;;;4.10;100.00;100281.94;5220653;27;20011;-81
2024/04/25 04:46:27;;;;;;;7.63;4.95;;;;;;;4.13;100.00;100282.47;5170263;27;20008;-80
2024/04/25 04:48:53;;;;;;;9.32;5.05;;;;;;;4.15;100.00;100285.72;5200866;27;21058;-81
2024/04/25 04:51:18;;;;;;;7.20;5.03;;;;;;;4.18;100.00;100287.88;5119338;27;20012;-81
2024/04/25 04:53:45;;;;;;;8.15;5.60;;;;;;;4.20;100.00;100286.63;5168173;27;20019;-82
2024/04/25 04:56:10;;;;;;;10.80;7.05;;;;;;;4.23;100.00;100282.69;5164773;27;20478;-81
2024/04/25 04:58:37;;;;;;;6.90;5.10;;;;;;;4.25;100.00;100283.22;5198568;27;20040;-81
2024/04/25 05:01:04;;;;;;;12.93;7.45;;;;;;;4.27;100.00;100289.13;5201986;27;20026;-81
2024/04/25 05:03:31;;;;;;;10.52;6.20;;;;;;;4.30;100.00;100272.72;5220711;27;20477;-80
2024/04/25 05:05:57;;;;;;;9.85;6.38;;;;;;;4.34;100.00;100279.16;5229727;27;20039;-81
2024/04/25 05:08:22;;;;;;;11.40;7.65;;;;;;;4.37;100.00;100278.69;5149401;27;20012;-80
2024/04/25 05:10:48;;;;;;;12.18;8.50;;;;;;;4.41;100.00;100279.81;5172392;27;20023;-81
2024/04/25 05:13:15;;;;;;;17.02;9.77;;;;;;;4.45;100.00;100280.94;5171326;27;20023;-80
2024/04/25 05:15:41;;;;;;;17.73;11.57;;;;;;;4.50;100.00;100277.56;5212595;27;20012;-80
2024/04/25 05:18:07;;;;;;;17.00;10.05;;;;;;;4.53;100.00;100277.06;5141689;27;20303;-81
2024/04/25 05:20:33;;;;;;;18.08;10.57;;;;;;;4.58;100.00;100280.63;5185354;27;20023;-82
2024/04/25 05:22:59;;;;;;;14.95;10.25;;;;;;;4.65;100.00;100280.44;5206632;27;20047;-83
2024/04/25 05:25:25;;;;;;;21.52;12.57;;;;;;;4.71;100.00;100273.38;5156131;27;20109;-80
2024/04/25 05:27:51;;;;;;;24.45;14.93;;;;;;;4.74;100.00;100283.50;5179816;27;20797;-81
2024/04/25 05:30:20;;;;;;;22.98;14.20;;;;;;;4.79;100.00;100275.63;5202493;27;20462;-80
2024/04/25 05:32:46;;;;;;;19.98;13.18;;;;;;;4.84;100.00;100281.00;5173913;27;20008;-80
2024/04/25 05:35:12;;;;;;;23.35;14.73;;;;;;;4.88;100.00;100280.28;5192954;27;20016;-80
2024/04/25 05:37:37;;;;;;;22.02;13.93;;;;;;;4.93;100.00;100287.50;5163100;27;20009;-81
2024/04/25 05:40:03;;;;;;;23.63;14.93;;;;;;;4.96;100.00;100281.72;5140079;27;20045;-81
2024/04/25 05:42:29;;;;;;;20.10;13.52;;;;;;;5.00;100.00;100288.13;5174113;27;20031;-80
2024/04/25 05:44:55;;;;;;;22.73;14.27;;;;;;;5.02;100.00;100285.25;5167674;27;20483;-81
2024/04/25 05:47:21;;;;;;;22.77;14.60;;;;;;;5.05;100.00;100290.88;5201982;27;20087;-81
2024/04/25 05:49:47;;;;;;;23.00;13.57;;;;;;;5.06;100.00;100287.16;5231149;27;20003;-81
2024/04/25 05:52:13;;;;;;;23.50;15.07;;;;;;;5.09;100.00;100286.69;5231897;27;20969;-82
2024/04/25 05:54:38;;;;;;;22.55;15.00;;;;;;;5.14;100.00;100277.97;5196671;27;20040;-81
2024/04/25 05:57:05;;;;;;;20.13;13.27;;;;;;;5.17;100.00;100288.13;5199085;27;20019;-81
2024/04/25 05:59:30;;;;;;;20.08;14.02;;;;;;;5.16;100.00;100282.00;5179460;27;20083;-85
2024/04/25 06:01:58;;;;;;;23.13;12.95;;;;;;;5.20;100.00;100288.44;5185700;27;20016;-84
2024/04/25 06:04:24;;;;;;;22.10;13.65;;;;;;;5.23;100.00;100289.00;5147496;27;20016;-87
2024/04/25 06:06:50;;;;;;;23.95;15.45;;;;;;;5.27;100.00;100292.75;5213796;27;20021;-83
2024/04/25 06:09:16;;;;;;;23.70;15.40;;;;;;;5.28;100.00;100295.16;5156246;27;20154;-82
2024/04/25 06:11:42;;;;;;;22.83;15.10;;;;;;;5.31;100.00;100293.88;5174487;27;20012;-83
2024/04/25 06:14:08;;;;;;;21.20;13.80;;;;;;;5.28;100.00;100289.06;5162260;27;20008;-82
2024/04/25 06:16:33;;;;;;;23.88;15.00;;;;;;;5.31;100.00;100296.53;5206058;27;20356;-81
2024/04/25 06:18:59;;;;;;;19.92;13.40;;;;;;;5.33;100.00;100294.44;5156398;27;20030;-82
2024/04/25 06:21:25;;;;;;;23.00;14.20;;;;;;;5.35;100.00;100294.97;5175131;27;20072;-80
2024/04/25 06:23:50;;;;;;;21.95;13.75;;;;;;;5.36;100.00;100292.09;5210063;27;20220;-81
2024/04/25 06:26:16;;;;;;;19.23;13.88;;;;;;;5.40;100.00;100292.41;5132250;27;20119;-80
2024/04/25 06:28:42;;;;;;;21.33;13.65;;;;;;;5.44;100.00;100290.88;5178316;27;20529;-81
2024/04/25 06:31:07;;;;;;;19.33;13.65;;;;;;;5.49;100.00;100296.25;5170159;27;20075;-82
2024/04/25 06:33:33;;;;;;;21.25;13.65;;;;;;;5.54;100.00;100300.81;5174013;27;20359;-82
2024/04/25 06:35:59;;;;;;;20.20;12.77;;;;;;;5.54;100.00;100296.28;5164583;27;21091;-80
2024/04/25 06:38:25;;;;;;;19.45;12.85;;;;;;;5.56;100.00;100299.53;5189153;27;20017;-80
2024/04/25 06:40:51;;;;;;;20.63;12.07;;;;;;;5.60;100.00;100297.97;5168705;27;20012;-81
2024/04/25 06:43:16;;;;;;;29.77;12.95;;;;;;;5.62;100.00;100303.84;5158576;27;20016;-80
2024/04/25 06:45:42;;;;;;;20.17;13.35;;;;;;;5.66;100.00;100299.63;5172148;27;20016;-80
2024/04/25 06:48:11;;;;;;;20.05;13.07;;;;;;;5.67;100.00;100298.59;5170338;27;20521;-79
2024/04/25 06:50:38;;;;;;;23.90;14.23;;;;;;;5.71;100.00;100299.69;5202806;27;20024;-79
2024/04/25 06:53:04;;;;;;;23.23;14.32;;;;;;;5.73;100.00;100297.59;5179405;27;20600;-81
2024/04/25 06:55:30;;;;;;;20.42;13.32;;;;;;;5.78;100.00;100301.38;5165697;27;20088;-81
2024/04/25 06:57:56;;;;;;;23.80;14.40;;;;;;;5.84;100.00;100303.03;5147814;27;20012;-80
2024/04/25 07:00:21;;;;;;;22.05;13.57;;;;;;;5.94;100.00;100300.50;5225040;27;20468;-81
2024/04/25 07:02:47;;;;;;;24.15;13.95;;;;;;;5.98;100.00;100305.09;5211717;27;20007;-80
2024/04/25 07:05:13;;;;;;;20.35;13.57;;;;;;;5.88;100.00;100304.94;5169176;27;20016;-80
2024/04/25 07:07:38;;;;;;;23.70;16.30;;;;;;;5.97;100.00;100303.50;5179316;27;20012;-79
2024/04/25 07:10:05;;;;;;;27.48;15.90;;;;;;;6.01;100.00;100309.09;5171740;27;20013;-80
2024/04/25 07:12:32;;;;;;;22.65;14.52;;;;;;;5.99;100.00;100305.88;5195994;27;20044;-81
2024/04/25 07:15:00;;;;;;;22.65;14.43;;;;;;;6.01;100.00;100311.75;5144143;27;20408;-81
2024/04/25 07:17:26;;;;;;;25.60;16.45;;;;;;;6.00;100.00;100302.97;5238278;27;20013;-80
2024/04/25 07:19:52;;;;;;;23.73;16.00;;;;;;;5.97;100.00;100315.97;5236682;27;20008;-82
2024/04/25 07:22:18;;;;;;;24.85;15.68;;;;;;;5.99;100.00;100316.53;5176174;27;20017;-78
2024/04/25 07:24:44;;;;;;;22.42;15.02;;;;;;;6.00;100.00;100310.16;5179606;27;20004;-82
2024/04/25 07:27:09;;;;;;;25.25;16.48;;;;;;;6.03;100.00;100309.66;5231605;27;20074;-81
2024/04/25 07:29:42;;;;;;;28.30;17.15;;;;;;;6.11;100.00;100313.72;5155053;27;20022;-79
2024/04/25 07:32:08;;;;;;;25.25;16.52;;;;;;;6.17;100.00;100310.06;5171852;27;20406;-81
2024/04/25 07:34:34;;;;;;;23.83;15.13;;;;;;;6.27;100.00;100313.63;5204567;27;20487;-82
2024/04/25 07:36:59;;;;;;;26.08;16.85;;;;;;;6.39;100.00;100310.00;5170081;27;20012;-79
2024/04/25 07:39:25;;;;;;;23.77;14.88;;;;;;;6.41;100.00;100313.22;5150339;27;20096;-82
2024/04/25 07:41:51;;;;;;;24.90;14.85;;;;;;;6.46;100.00;100308.75;5177137;27;20088;-80
2024/04/25 07:44:16;;;;;;;22.80;15.10;;;;;;;6.46;100.00;100311.41;5174887;27;20011;-80
2024/04/25 07:46:42;;;;;;;20.40;13.70;;;;;;;6.43;100.00;100303.91;5167627;27;20088;-79
2024/04/25 07:49:12;;;;;;;19.70;12.50;;;;;;;6.45;100.00;100309.81;5141044;27;20016;-79
2024/04/25 07:51:38;;;;;;;23.52;13.75;;;;;;;6.46;100.00;100307.94;5201095;27;20012;-79
2024/04/25 07:54:04;;;;;;;20.08;13.77;;;;;;;6.46;100.00;100311.41;5162682;27;20016;-82
2024/04/25 07:56:30;;;;;;;19.63;12.88;;;;;;;6.48;100.00;100303.16;5165339;27;20023;-77
2024/04/25 07:58:57;;;;;;;19.60;13.88;;;;;;;6.52;100.00;100312.25;5162037;27;20052;-80
2024/04/25 08:01:23;;;;;;;18.10;12.82;;;;;;;6.54;100.00;100304.81;5166831;27;20012;-81
2024/04/25 08:03:49;;;;;;;21.30;12.95;;;;;;;6.61;100.00;100304.59;5219723;27;20027;-81
2024/04/25 08:06:15;;;;;;;19.75;13.57;;;;;;;6.81;100.00;100313.56;5229631;27;20047;-79
2024/04/25 08:08:41;;;;;;;18.33;12.05;;;;;;;6.96;100.00;100304.06;5164618;27;20075;-80
2024/04/25 08:11:06;;;;;;;17.08;11.75;;;;;;;7.00;100.00;100295.31;5161608;27;20856;-77
2024/04/25 08:13:32;;;;;;;15.70;11.20;;;;;;;7.27;100.00;100300.53;5164089;27;20022;-79
2024/04/25 08:15:59;;;;;;;17.27;11.93;;;;;;;7.55;100.00;100295.88;5198595;27;20020;-79
2024/04/25 08:18:25;;;;;;;16.52;11.57;;;;;;;7.86;100.00;100292.28;5167636;27;20012;-79
2024/04/25 08:20:50;;;;;;;13.85;10.05;;;;;;;8.07;100.00;100290.47;5187775;27;20794;-79
2024/04/25 08:23:16;;;;;;;13.25;10.02;;;;;;;8.08;100.00;100296.59;5131585;27;20595;-79
2024/04/25 08:25:42;;;;;;;11.00;8.45;;;;;;;8.11;100.00;100294.19;5194639;27;20023;-81
2024/04/25 08:28:08;;;;;;;11.82;8.85;;;;;;;8.10;100.00;100303.25;5190098;27;20004;-83
2024/04/25 08:30:34;;;;;;;14.15;9.38;;;;;;;8.13;100.00;100297.41;5167197;27;20004;-80
2024/04/25 08:32:59;;;;;;;11.50;8.50;;;;;;;8.20;100.00;100292.63;5164177;27;20012;-80
2024/04/25 08:35:25;;;;;;;9.43;6.78;;;;;;;8.27;100.00;100292.38;5137434;27;20020;-80
2024/04/25 08:37:52;;;;;;;11.65;8.32;;;;;;;8.28;100.00;100293.97;5206984;27;20119;-80
2024/04/25 08:40:18;;;;;;;11.05;7.38;;;;;;;8.29;100.00;100289.44;5161056;27;20009;-81
2024/04/25 08:42:49;;;;;;;12.75;7.35;;;;;;;8.39;100.00;100292.13;5171170;27;20019;-78
2024/04/25 08:45:16;;;;;;;8.02;5.25;;;;;;;8.33;100.00;100293.97;5187382;27;20019;-79
2024/04/25 08:47:42;;;;;;;;;;;;;;;8.49;100.00;100289.47;5167275;27;20012;-79
2024/04/25 08:50:09;;;;;;;8.98;6.15;;;;;;;8.67;100.00;100294.28;5164726;27;19936;-80
2024/04/25 08:52:41;;;;;;;10.00;6.97;;;;;;;8.68;100.00;100287.06;5174777;27;20015;-81
2024/04/25 08:55:08;;;;;;;8.00;6.00;;;;;;;8.84;100.00;100283.31;5196141;27;20007;-81
2024/04/25 08:57:34;;;;;;;10.07;6.13;;;;;;;8.86;100.00;100291.06;5178265;27;20012;-80
2024/04/25 09:00:01;;;;;;;7.60;5.13;;;;;;;8.87;100.00;100290.78;5180398;27;20027;-80
2024/04/25 09:02:28;;;;;;;6.32;4.75;;;;;;;8.84;100.00;100279.84;5229211;27;20036;-80
2024/04/25 09:04:54;;;;;;;7.15;5.38;;;;;;;8.82;100.00;100276.66;5177094;27;20020;-79
2024/04/25 09:07:20;;;;;;;7.45;4.88;;;;;;;8.92;100.00;100279.28;5174521;27;20023;-80
2024/04/25 09:09:46;;;;;;;7.88;5.03;;;;;;;9.12;100.00;100281.13;5193398;27;20027;-83
2024/04/25 09:12:12;;;;;;;8.07;5.18;;;;;;;9.10;100.00;100284.06;5176400;27;20944;-80
2024/04/25 09:14:37;;;;;;;8.05;5.22;;;;;;;9.26;100.00;100277.63;5158533;27;20410;-80
2024/04/25 09:17:03;;;;;;;6.03;4.10;;;;;;;9.06;100.00;100280.34;5174632;27;20017;-80
2024/04/25 09:19:30;;;;;;;5.22;3.60;;;;;;;8.94;100.00;100277.16;5216743;27;20013;-82
2024/04/25 09:21:56;;;;;;;5.57;3.45;;;;;;;8.98;100.00;100281.69;5173615;27;20024;-82
2024/04/25 09:24:21;;;;;;;5.45;3.70;;;;;;;9.01;100.00;100262.47;5170907;27;20012;-80
2024/04/25 09:26:47;;;;;;;6.57;3.25;;;;;;;9.30;100.00;100272.53;5201495;27;20392;-75
2024/04/25 09:29:13;;;;;;;4.78;3.42;;;;;;;9.54;100.00;100262.81;5165377;27;20013;-84
2024/04/25 09:31:39;;;;;;;4.93;3.58;;;;;;;9.77;100.00;100260.59;5181866;27;20024;-82
2024/04/25 09:34:05;;;;;;;5.35;3.45;;;;;;;9.87;100.00;100265.84;5170466;27;20476;-83
2024/04/25 09:36:31;;;;;;;5.25;3.45;;;;;;;9.86;100.00;100264.25;5208586;27;20026;-83
2024/04/25 09:38:57;;;;;;;6.00;3.42;;;;;;;9.78;100.00;100256.81;5184545;27;20011;-83
2024/04/25 09:41:24;;;;;;;;;;;;;;;9.67;100.00;100263.28;5212320;27;20095;-82
2024/04/25 09:43:51;;;;;;;6.30;3.40;;;;;;;9.68;100.00;100257.66;5173872;27;20009;-82
2024/04/25 09:46:22;;;;;;;;;;;;;;;9.65;100.00;100262.78;5236985;27;20463;-83
2024/04/25 09:48:57;;;;;;;4.53;2.80;;;;;;;9.51;100.00;100258.03;5155148;27;19995;-81
2024/04/25 09:51:30;;;;;;;6.47;3.50;;;;;;;9.42;100.00;100254.31;5223791;27;20016;-82
2024/04/25 09:54:02;;;;;;;4.03;3.20;;;;;;;9.39;100.00;100254.06;5204453;27;20028;-84
2024/04/25 09:56:34;;;;;;;5.43;3.90;;;;;;;9.33;100.00;100260.50;5203592;27;20012;-85
2024/04/25 09:59:11;;;;;;;5.60;3.47;;;;;;;9.27;100.00;100260.50;5185984;27;20008;-82
2024/04/25 10:01:38;;;;;;;5.55;3.55;;;;;;;9.16;100.00;100258.94;5150843;27;20055;-83
2024/04/25 10:04:05;;;;;;;5.45;3.30;;;;;;;9.15;100.00;100256.56;5178478;27;20044;-84
2024/04/25 10:06:32;;;;;;;6.32;2.72;;;;;;;9.08;100.00;100248.00;5186976;27;20016;-83
2024/04/25 10:08:58;;;;;;;4.32;3.15;;;;;;;9.06;100.00;100255.50;5170788;27;20854;-82
2024/04/25 10:11:27;;;;;;;4.90;3.78;;;;;;;9.06;100.00;100256.28;5167518;27;20061;-76
2024/04/25 10:13:53;;;;;;;4.78;3.40;;;;;;;9.12;100.00;100265.91;5213505;27;20693;-78
2024/04/25 10:16:19;;;;;;;6.47;4.07;;;;;;;9.18;100.00;100254.13;5108529;27;20020;-78
2024/04/25 10:18:49;;;;;;;4.95;3.60;;;;;;;9.23;100.00;100253.31;5174043;27;20016;-77
2024/04/25 10:21:15;;;;;;;4.82;3.22;;;;;;;9.56;100.00;100247.31;5192951;27;20011;-79
2024/04/25 10:23:41;;;;;;;7.57;3.53;;;;;;;9.78;100.00;100251.47;5169768;27;20023;-78
2024/04/25 10:26:17;;;;;;;4.50;3.08;;;;;;;9.82;100.00;100249.84;5223822;27;20814;-79
2024/04/25 10:28:53;;;;;;;9.27;3.42;;;;;;;9.75;100.00;100252.00;5164740;27;20012;-79
2024/04/25 10:31:19;;;;;;;4.32;3.50;;;;;;;9.93;100.00;100247.91;5201394;27;20024;-79
2024/04/25 10:33:45;;;;;;;4.88;3.47;;;;;;;10.10;100.00;100253.69;5166169;27;20366;-79
2024/04/25 10:36:13;;;;;;;7.28;3.97;;;;;;;10.20;100.00;100247.47;5168024;27;20648;-78
2024/04/25 10:38:38;;;;;;;4.75;3.17;;;;;;;10.26;100.00;100241.84;5208105;27;20016;-77
2024/04/25 10:41:04;;;;;;;5.10;2.83;;;;;;;10.45;100.00;100233.13;5171672;27;20047;-80
2024/04/25 10:43:30;;;;;;;4.63;3.45;;;;;;;10.53;100.00;100249.38;5167650;27;20020;-80
2024/04/25 10:45:55;;;;;;;4.97;2.70;;;;;;;10.62;100.00;100234.28;5227113;27;20083;-80
2024/04/25 10:48:23;;;;;;;4.95;3.33;;;;;;;10.61;100.00;100235.38;5200144;27;20023;-79
2024/04/25 10:50:49;;;;;;;6.07;3.42;;;;;;;10.50;100.00;100236.56;5176346;27;20007;-80
2024/04/25 10:53:15;;;;;;;5.60;3.40;;;;;;;10.33;100.00;100236.97;5175240;27;20011;-78
2024/04/25 10:55:41;;;;;;;4.25;3.15;;;;;;;10.27;100.00;100246.09;5163646;27;20471;-79
2024/04/25 10:58:12;;;;;;;5.07;2.72;;;;;;;10.29;100.00;100245.81;5168676;27;20366;-78
2024/04/25 11:00:42;;;;;;;2.38;2.08;;;;;;;10.27;100.00;100245.31;5203306;27;20023;-79
2024/04/25 11:03:11;;;;;;;4.07;2.80;;;;;;;10.24;100.00;100243.19;5144595;27;20013;-81
2024/04/25 11:05:39;;;;;;;4.32;2.90;;;;;;;10.10;100.00;100243.78;5163616;27;20023;-79
2024/04/25 11:08:06;;;;;;;3.28;2.90;;;;;;;9.88;100.00;100246.06;5185526;27;20007;-82
2024/04/25 11:10:32;;;;;;;3.38;2.72;;;;;;;9.76;100.00;100242.94;5170916;27;20052;-78
2024/04/25 11:12:58;;;;;;;3.13;2.30;;;;;;;9.72;100.00;100241.88;5193872;27;20004;-78
2024/04/25 11:15:26;;;;;;;11.23;2.50;;;;;;;9.66;100.00;100245.66;5192836;27;20020;-78
2024/04/25 11:17:52;;;;;;;2.17;1.73;;;;;;;9.64;100.00;100245.13;5225916;27;20479;-78
2024/04/25 11:20:19;;;;;;;2.60;2.03;;;;;;;9.59;100.00;100253.97;5214981;27;20008;-79
2024/04/25 11:22:45;;;;;;;2.10;1.60;;;;;;;9.54;100.00;100251.31;5131722;27;20140;-78